createdAt,value
2019-02-06T00:00:49.680Z,1022.25
2019-02-06T00:01:49.686Z,1022.23
2019-02-06T00:02:49.716Z,1022.23
2019-02-06T00:03:49.695Z,1022.21
2019-02-06T00:04:49.706Z,1022.18
2019-02-06T00:05:49.716Z,1022.25
2019-02-06T00:06:49.726Z,1022.21
2019-02-06T00:07:49.768Z,1022.20
2019-02-06T00:08:49.746Z,1022.22
2019-02-06T00:09:49.755Z,1022.25
2019-02-06T00:10:49.759Z,1022.19
2019-02-06T00:11:49.767Z,1022.20
2019-02-06T00:12:49.784Z,1022.23
2019-02-06T00:13:49.782Z,1022.13
2019-02-06T00:14:49.794Z,1022.15
2019-02-06T00:15:49.818Z,1022.03
2019-02-06T00:16:49.810Z,1022.03
2019-02-06T00:17:49.837Z,1022.03
2019-02-06T00:18:49.841Z,1021.96
2019-02-06T00:19:49.825Z,1021.93
2019-02-06T00:20:49.829Z,1021.92
2019-02-06T00:21:49.837Z,1021.84
2019-02-06T00:22:49.857Z,1021.85
2019-02-06T00:23:49.852Z,1021.80
2019-02-06T00:24:49.865Z,1021.82
2019-02-06T00:25:49.869Z,1021.81
2019-02-06T00:26:49.884Z,1021.73
2019-02-06T00:27:49.900Z,1021.78
2019-02-06T00:28:49.898Z,1021.72
2019-02-06T00:29:49.907Z,1021.69
2019-02-06T00:30:49.917Z,1021.74
2019-02-06T00:31:49.933Z,1021.72
2019-02-06T00:32:49.959Z,1021.71
2019-02-06T00:33:49.955Z,1021.73
2019-02-06T00:34:49.971Z,1021.73
2019-02-06T00:35:49.990Z,1021.75
2019-02-06T00:36:50.006Z,1021.74
2019-02-06T00:37:50.038Z,1021.73
2019-02-06T00:38:50.035Z,1021.75
2019-02-06T00:39:50.049Z,1021.74
2019-02-06T00:40:50.063Z,1021.80
2019-02-06T00:41:50.079Z,1021.79
2019-02-06T00:42:50.108Z,1021.80
2019-02-06T00:43:50.117Z,1021.75
2019-02-06T00:44:50.138Z,1021.78
2019-02-06T00:45:50.154Z,1021.81
2019-02-06T00:46:50.179Z,1021.80
2019-02-06T00:47:50.197Z,1021.81
2019-02-06T00:48:50.224Z,1021.84
2019-02-06T00:49:50.216Z,1021.90
2019-02-06T00:50:50.228Z,1021.81
2019-02-06T00:51:50.246Z,1021.84
2019-02-06T00:52:50.277Z,1021.81
2019-02-06T00:53:50.280Z,1021.84
2019-02-06T00:54:50.297Z,1021.86
2019-02-06T00:55:50.316Z,1021.85
2019-02-06T00:56:50.336Z,1021.76
2019-02-06T00:57:50.363Z,1021.72
2019-02-06T00:58:50.369Z,1021.69
2019-02-06T00:59:50.385Z,1021.61
2019-02-06T01:00:50.404Z,1021.55
2019-02-06T01:01:50.430Z,1021.54
2019-02-06T01:02:50.454Z,1021.54
2019-02-06T01:03:50.469Z,1021.57
2019-02-06T01:04:50.487Z,1021.57
2019-02-06T01:05:50.505Z,1021.56
2019-02-06T01:06:50.514Z,1021.59
2019-02-06T01:07:50.558Z,1021.55
2019-02-06T01:08:50.544Z,1021.55
2019-02-06T01:09:50.565Z,1021.53
2019-02-06T01:10:50.574Z,1021.50
2019-02-06T01:11:50.588Z,1021.51
2019-02-06T01:12:50.622Z,1021.50
2019-02-06T01:13:50.623Z,1021.48
2019-02-06T01:14:50.640Z,1021.46
2019-02-06T01:15:50.654Z,1021.43
2019-02-06T01:16:50.672Z,1021.46
2019-02-06T01:17:50.700Z,1021.46
2019-02-06T01:18:50.709Z,1021.42
2019-02-06T01:19:50.727Z,1021.41
2019-02-06T01:20:50.747Z,1021.40
2019-02-06T01:21:50.779Z,1021.35
2019-02-06T01:22:50.805Z,1021.38
2019-02-06T01:23:50.824Z,1021.37
2019-02-06T01:24:50.839Z,1021.41
2019-02-06T01:25:50.864Z,1021.44
2019-02-06T01:26:50.890Z,1021.47
2019-02-06T01:27:50.922Z,1021.44
2019-02-06T01:28:50.931Z,1021.41
2019-02-06T01:29:50.959Z,1021.43
2019-02-06T01:30:50.973Z,1021.44
2019-02-06T01:31:50.994Z,1021.46
2019-02-06T01:32:51.027Z,1021.48
2019-02-06T01:33:51.037Z,1021.47
2019-02-06T01:34:51.063Z,1021.44
2019-02-06T01:35:51.090Z,1021.40
2019-02-06T01:36:51.103Z,1021.39
2019-02-06T01:37:51.129Z,1021.39
2019-02-06T01:38:51.132Z,1021.37
2019-02-06T01:39:51.150Z,1021.36
2019-02-06T01:40:51.164Z,1021.37
2019-02-06T01:41:51.182Z,1021.36
2019-02-06T01:42:51.210Z,1021.37
2019-02-06T01:43:51.221Z,1021.32
2019-02-06T01:44:51.246Z,1021.32
2019-02-06T01:45:51.266Z,1021.34
2019-02-06T01:46:51.286Z,1021.36
2019-02-06T01:47:51.319Z,1021.33
2019-02-06T01:48:51.326Z,1021.30
2019-02-06T01:49:51.348Z,1021.27
2019-02-06T01:50:51.367Z,1021.25
2019-02-06T01:51:51.384Z,1021.23
2019-02-06T01:52:51.419Z,1021.24
2019-02-06T01:53:51.421Z,1021.25
2019-02-06T01:54:51.440Z,1021.24
2019-02-06T01:55:51.460Z,1021.24
2019-02-06T01:56:51.482Z,1021.17
2019-02-06T01:57:51.514Z,1021.19
2019-02-06T01:58:51.522Z,1021.24
2019-02-06T01:59:51.541Z,1021.25
2019-02-06T02:00:51.559Z,1021.24
2019-02-06T02:01:51.578Z,1021.22
2019-02-06T02:02:51.609Z,1021.21
2019-02-06T02:03:51.618Z,1021.17
2019-02-06T02:04:51.640Z,1021.19
2019-02-06T02:06:01.850Z,1021.18
2019-02-06T02:06:52.685Z,1021.20
2019-02-06T02:07:51.716Z,1021.20
2019-02-06T02:08:51.726Z,1021.22
2019-02-06T02:09:51.739Z,1021.23
2019-02-06T02:10:51.757Z,1021.21
2019-02-06T02:11:51.772Z,1021.24
2019-02-06T02:12:51.800Z,1021.25
2019-02-06T02:13:51.811Z,1021.25
2019-02-06T02:14:51.831Z,1021.26
2019-02-06T02:15:51.852Z,1021.23
2019-02-06T02:16:51.872Z,1021.21
2019-02-06T02:17:51.902Z,1021.23
2019-02-06T02:18:51.918Z,1021.20
2019-02-06T02:19:51.948Z,1021.16
2019-02-06T02:20:51.966Z,1021.16
2019-02-06T02:21:51.981Z,1021.12
2019-02-06T02:22:52.024Z,1021.09
2019-02-06T02:23:52.017Z,1021.06
2019-02-06T02:24:52.036Z,1021.05
2019-02-06T02:25:52.057Z,1021.08
2019-02-06T02:26:52.080Z,1021.04
2019-02-06T02:27:52.118Z,1021.04
2019-02-06T02:28:52.125Z,1021.04
2019-02-06T02:29:52.142Z,1020.98
2019-02-06T02:30:52.165Z,1020.95
2019-02-06T02:31:52.189Z,1020.91
2019-02-06T02:32:52.218Z,1020.84
2019-02-06T02:33:52.228Z,1020.83
2019-02-06T02:34:52.250Z,1020.77
2019-02-06T02:35:52.276Z,1020.74
2019-02-06T02:36:52.298Z,1020.70
2019-02-06T02:37:52.338Z,1020.65
2019-02-06T02:38:52.342Z,1020.67
2019-02-06T02:39:52.359Z,1020.65
2019-02-06T02:40:52.381Z,1020.64
2019-02-06T02:41:52.411Z,1020.61
2019-02-06T02:42:52.430Z,1020.58
2019-02-06T02:43:52.434Z,1020.58
2019-02-06T02:44:52.513Z,1020.60
2019-02-06T02:45:52.479Z,1020.58
2019-02-06T02:46:52.475Z,1020.61
2019-02-06T02:47:52.502Z,1020.59
2019-02-06T02:48:52.504Z,1020.55
2019-02-06T02:49:52.521Z,1020.58
2019-02-06T02:50:52.541Z,1020.53
2019-02-06T02:51:52.561Z,1020.55
2019-02-06T02:52:52.589Z,1020.52
2019-02-06T02:53:52.595Z,1020.54
2019-02-06T02:54:52.610Z,1020.53
2019-02-06T02:55:52.619Z,1020.49
2019-02-06T02:56:52.636Z,1020.50
2019-02-06T02:57:52.662Z,1020.40
2019-02-06T02:58:52.665Z,1020.41
2019-02-06T02:59:52.682Z,1020.34
2019-02-06T03:00:52.699Z,1020.28
2019-02-06T03:01:52.716Z,1020.29
2019-02-06T03:02:52.741Z,1020.24
2019-02-06T03:03:52.745Z,1020.20
2019-02-06T03:04:52.764Z,1020.23
2019-02-06T03:05:52.789Z,1020.19
2019-02-06T03:06:52.803Z,1020.20
2019-02-06T03:07:52.829Z,1020.14
2019-02-06T03:08:52.833Z,1020.13
2019-02-06T03:09:52.851Z,1020.12
2019-02-06T03:10:52.866Z,1020.05
2019-02-06T03:11:52.879Z,1020.08
2019-02-06T03:12:52.905Z,1020.03
2019-02-06T03:13:52.902Z,1020.10
2019-02-06T03:14:52.920Z,1020.03
2019-02-06T03:15:52.936Z,1020.01
2019-02-06T03:16:52.950Z,1019.97
2019-02-06T03:17:52.978Z,1019.92
2019-02-06T03:18:52.983Z,1019.90
2019-02-06T03:19:53.003Z,1019.87
2019-02-06T03:20:53.020Z,1019.86
2019-02-06T03:21:53.037Z,1019.85
2019-02-06T03:22:53.064Z,1019.81
2019-02-06T03:23:53.074Z,1019.82
2019-02-06T03:24:53.095Z,1019.76
2019-02-06T03:25:53.114Z,1019.74
2019-02-06T03:26:53.128Z,1019.75
2019-02-06T03:27:53.154Z,1019.73
2019-02-06T03:28:53.155Z,1019.70
2019-02-06T03:29:53.170Z,1019.73
2019-02-06T03:30:53.189Z,1019.75
2019-02-06T03:31:53.215Z,1019.69
2019-02-06T03:32:53.229Z,1019.73
2019-02-06T03:33:53.232Z,1019.72
2019-02-06T03:34:53.254Z,1019.75
2019-02-06T03:35:53.267Z,1019.72
2019-02-06T03:36:53.275Z,1019.68
2019-02-06T03:37:53.298Z,1019.62
2019-02-06T03:38:53.301Z,1019.66
2019-02-06T03:39:53.312Z,1019.61
2019-02-06T03:40:53.326Z,1019.54
2019-02-06T03:41:53.459Z,1019.55
2019-02-06T03:42:53.380Z,1019.58
2019-02-06T03:43:53.373Z,1019.60
2019-02-06T03:44:53.388Z,1019.60
2019-02-06T03:45:53.399Z,1019.64
2019-02-06T03:46:53.417Z,1019.66
2019-02-06T03:47:53.452Z,1019.63
2019-02-06T03:48:53.445Z,1019.60
2019-02-06T03:49:53.462Z,1019.63
2019-02-06T03:50:53.478Z,1019.57
2019-02-06T03:51:53.481Z,1019.54
2019-02-06T03:52:53.506Z,1019.49
2019-02-06T03:53:53.498Z,1019.43
2019-02-06T03:54:53.513Z,1019.48
2019-02-06T03:55:53.527Z,1019.49
2019-02-06T03:56:53.536Z,1019.47
2019-02-06T03:57:53.554Z,1019.50
2019-02-06T03:58:53.555Z,1019.47
2019-02-06T03:59:53.565Z,1019.48
2019-02-06T04:00:53.571Z,1019.45
2019-02-06T04:01:53.584Z,1019.46
2019-02-06T04:02:53.588Z,1019.48
2019-02-06T04:03:53.582Z,1019.50
2019-02-06T04:04:53.585Z,1019.53
2019-02-06T04:05:53.589Z,1019.52
2019-02-06T04:07:00.750Z,1019.51
2019-02-06T04:07:54.614Z,1019.58
2019-02-06T04:08:53.610Z,1019.54
2019-02-06T04:09:53.618Z,1019.55
2019-02-06T04:10:53.625Z,1019.56
2019-02-06T04:11:53.630Z,1019.58
2019-02-06T04:12:53.632Z,1019.58
2019-02-06T04:13:53.741Z,1019.61
2019-02-06T04:14:53.642Z,1019.59
2019-02-06T04:15:53.648Z,1019.56
2019-02-06T04:16:53.659Z,1019.49
2019-02-06T04:17:54.567Z,1019.50
2019-02-06T04:18:53.677Z,1019.48
2019-02-06T04:19:53.669Z,1019.46
2019-02-06T04:20:53.680Z,1019.43
2019-02-06T04:21:53.682Z,1019.41
2019-02-06T04:22:53.687Z,1019.41
2019-02-06T04:23:53.703Z,1019.44
2019-02-06T04:24:53.696Z,1019.42
2019-02-06T04:25:53.702Z,1019.41
2019-02-06T04:26:53.721Z,1019.38
2019-02-06T04:27:53.712Z,1019.38
2019-02-06T04:28:53.735Z,1019.38
2019-02-06T04:29:53.723Z,1019.40
2019-02-06T04:30:53.731Z,1019.42
2019-02-06T04:31:53.736Z,1019.39
2019-02-06T04:32:53.744Z,1019.41
2019-02-06T04:33:53.766Z,1019.35
2019-02-06T04:34:53.821Z,1019.28
2019-02-06T04:35:53.767Z,1019.25
2019-02-06T04:37:05.828Z,1019.23
2019-02-06T04:37:54.771Z,1019.26
2019-02-06T04:38:53.791Z,1019.28
2019-02-06T04:39:53.793Z,1019.24
2019-02-06T04:40:53.793Z,1019.23
2019-02-06T04:41:53.799Z,1019.23
2019-02-06T04:42:53.808Z,1019.18
2019-02-06T04:43:53.823Z,1019.17
2019-02-06T04:44:53.819Z,1019.14
2019-02-06T04:45:53.823Z,1019.17
2019-02-06T04:46:53.830Z,1019.15
2019-02-06T04:47:53.838Z,1019.12
2019-02-06T04:48:53.878Z,1019.06
2019-02-06T04:49:53.858Z,1019.08
2019-02-06T04:50:53.869Z,1019.07
2019-02-06T04:51:53.880Z,1019.07
2019-02-06T04:52:53.884Z,1019.00
2019-02-06T04:53:53.902Z,1018.98
2019-02-06T04:54:53.898Z,1018.96
2019-02-06T04:55:53.906Z,1018.95
2019-02-06T04:56:53.918Z,1018.94
2019-02-06T04:57:54.016Z,1018.94
2019-02-06T04:58:53.946Z,1018.94
2019-02-06T04:59:53.937Z,1018.96
2019-02-06T05:00:53.941Z,1018.94
2019-02-06T05:01:53.946Z,1018.93
2019-02-06T05:02:53.955Z,1018.94
2019-02-06T05:03:53.975Z,1018.88
2019-02-06T05:04:53.976Z,1018.86
2019-02-06T05:05:53.986Z,1018.84
2019-02-06T05:06:53.996Z,1018.84
2019-02-06T05:07:54.003Z,1018.78
2019-02-06T05:08:54.019Z,1018.81
2019-02-06T05:09:54.014Z,1018.88
2019-02-06T05:10:54.020Z,1018.87
2019-02-06T05:11:54.029Z,1018.84
2019-02-06T05:12:54.034Z,1018.83
2019-02-06T05:13:54.061Z,1018.78
2019-02-06T05:14:54.054Z,1018.79
2019-02-06T05:15:54.064Z,1018.77
2019-02-06T05:16:54.071Z,1018.78
2019-02-06T05:17:55.900Z,1018.76
2019-02-06T05:18:54.099Z,1018.70
2019-02-06T05:19:54.091Z,1018.70
2019-02-06T05:20:54.093Z,1018.69
2019-02-06T05:21:54.100Z,1018.76
2019-02-06T05:22:54.109Z,1018.73
2019-02-06T05:23:54.116Z,1018.72
2019-02-06T05:24:54.112Z,1018.71
2019-02-06T05:25:54.118Z,1018.71
2019-02-06T05:26:54.124Z,1018.65
2019-02-06T05:27:54.131Z,1018.61
2019-02-06T05:28:54.181Z,1018.59
2019-02-06T05:29:54.136Z,1018.66
2019-02-06T05:30:54.142Z,1018.61
2019-02-06T05:31:54.160Z,1018.64
2019-02-06T05:32:54.155Z,1018.65
2019-02-06T05:33:54.180Z,1018.66
2019-02-06T05:34:54.166Z,1018.62
2019-02-06T05:35:54.198Z,1018.69
2019-02-06T05:36:54.167Z,1018.70
2019-02-06T05:37:54.171Z,1018.69
2019-02-06T05:38:54.174Z,1018.70
2019-02-06T05:39:54.188Z,1018.69
2019-02-06T05:40:54.182Z,1018.75
2019-02-06T05:41:54.176Z,1018.75
2019-02-06T05:42:54.183Z,1018.79
2019-02-06T05:43:54.182Z,1018.76
2019-02-06T05:44:54.204Z,1018.74
2019-02-06T05:45:54.194Z,1018.73
2019-02-06T05:46:54.188Z,1018.76
2019-02-06T05:47:54.189Z,1018.71
2019-02-06T05:48:54.193Z,1018.75
2019-02-06T05:49:54.196Z,1018.76
2019-02-06T05:50:54.212Z,1018.83
2019-02-06T05:51:54.201Z,1018.81
2019-02-06T05:52:54.201Z,1018.80
2019-02-06T05:53:54.203Z,1018.80
2019-02-06T05:54:54.199Z,1018.81
2019-02-06T05:55:54.198Z,1018.82
2019-02-06T05:56:54.206Z,1018.81
2019-02-06T05:57:54.196Z,1018.75
2019-02-06T05:58:54.199Z,1018.77
2019-02-06T05:59:54.199Z,1018.74
2019-02-06T06:00:54.204Z,1018.75
2019-02-06T06:01:54.206Z,1018.73
2019-02-06T06:02:54.223Z,1018.72
2019-02-06T06:03:54.225Z,1018.71
2019-02-06T06:04:54.230Z,1018.67
2019-02-06T06:05:54.235Z,1018.65
2019-02-06T06:06:54.246Z,1018.63
2019-02-06T06:07:54.258Z,1018.65
2019-02-06T06:08:54.249Z,1018.59
2019-02-06T06:09:54.248Z,1018.59
2019-02-06T06:10:54.252Z,1018.61
2019-02-06T06:11:54.258Z,1018.60
2019-02-06T06:12:54.263Z,1018.58
2019-02-06T06:13:54.278Z,1018.59
2019-02-06T06:14:54.272Z,1018.54
2019-02-06T06:15:54.269Z,1018.55
2019-02-06T06:16:54.272Z,1018.51
2019-02-06T06:17:54.279Z,1018.51
2019-02-06T06:18:54.294Z,1018.47
2019-02-06T06:19:54.283Z,1018.44
2019-02-06T06:20:54.387Z,1018.43
2019-02-06T06:21:54.292Z,1018.45
2019-02-06T06:22:54.295Z,1018.46
2019-02-06T06:23:54.314Z,1018.49
2019-02-06T06:24:54.313Z,1018.53
2019-02-06T06:25:54.323Z,1018.50
2019-02-06T06:26:54.329Z,1018.50
2019-02-06T06:27:54.336Z,1018.50
2019-02-06T06:28:54.358Z,1018.51
2019-02-06T06:29:54.345Z,1018.49
2019-02-06T06:30:54.353Z,1018.45
2019-02-06T06:31:54.354Z,1018.49
2019-02-06T06:32:54.358Z,1018.44
2019-02-06T06:33:54.373Z,1018.44
2019-02-06T06:34:54.371Z,1018.44
2019-02-06T06:35:54.381Z,1018.38
2019-02-06T06:36:56.813Z,1018.37
2019-02-06T06:37:59.682Z,1018.36
2019-02-06T06:38:55.422Z,1018.40
2019-02-06T06:39:54.420Z,1018.34
2019-02-06T06:40:54.424Z,1018.35
2019-02-06T06:41:54.430Z,1018.36
2019-02-06T06:42:54.440Z,1018.29
2019-02-06T06:43:54.445Z,1018.31
2019-02-06T06:44:54.458Z,1018.30
2019-02-06T06:45:54.453Z,1018.29
2019-02-06T06:46:54.458Z,1018.32
2019-02-06T06:47:54.475Z,1018.30
2019-02-06T06:48:54.485Z,1018.29
2019-02-06T06:49:54.504Z,1018.29
2019-02-06T06:50:54.502Z,1018.30
2019-02-06T06:51:54.522Z,1018.28
2019-02-06T06:52:54.524Z,1018.29
2019-02-06T06:53:54.533Z,1018.29
2019-02-06T06:54:54.554Z,1018.23
2019-02-06T06:55:54.550Z,1018.24
2019-02-06T06:56:54.566Z,1018.23
2019-02-06T06:57:54.571Z,1018.17
2019-02-06T06:58:54.579Z,1018.17
2019-02-06T06:59:55.692Z,1018.11
2019-02-06T07:00:54.595Z,1018.12
2019-02-06T07:01:54.600Z,1018.10
2019-02-06T07:02:54.607Z,1018.10
2019-02-06T07:03:54.615Z,1018.13
2019-02-06T07:04:54.634Z,1018.13
2019-02-06T07:05:54.633Z,1018.06
2019-02-06T07:06:54.640Z,1018.11
2019-02-06T07:07:54.653Z,1018.07
2019-02-06T07:08:54.658Z,1018.06
2019-02-06T07:09:54.674Z,1018.10
2019-02-06T07:10:54.673Z,1018.07
2019-02-06T07:11:54.682Z,1018.10
2019-02-06T07:12:54.691Z,1018.14
2019-02-06T07:13:54.701Z,1018.11
2019-02-06T07:14:54.716Z,1018.10
2019-02-06T07:15:54.715Z,1018.06
2019-02-06T07:16:54.720Z,1018.08
2019-02-06T07:17:54.729Z,1018.08
2019-02-06T07:18:54.740Z,1018.11
2019-02-06T07:19:54.758Z,1018.09
2019-02-06T07:20:54.754Z,1018.08
2019-02-06T07:21:54.764Z,1018.09
2019-02-06T07:22:54.772Z,1018.12
2019-02-06T07:23:54.783Z,1018.11
2019-02-06T07:24:54.808Z,1018.12
2019-02-06T07:25:54.798Z,1018.11
2019-02-06T07:26:54.805Z,1018.11
2019-02-06T07:27:54.816Z,1018.16
2019-02-06T07:28:54.826Z,1018.14
2019-02-06T07:29:54.854Z,1018.15
2019-02-06T07:30:54.840Z,1018.10
2019-02-06T07:31:54.843Z,1018.13
2019-02-06T07:32:54.850Z,1018.11
2019-02-06T07:33:54.864Z,1018.15
2019-02-06T07:34:54.881Z,1018.10
2019-02-06T07:35:54.882Z,1018.09
2019-02-06T07:36:54.892Z,1018.09
2019-02-06T07:37:54.906Z,1018.06
2019-02-06T07:38:54.912Z,1018.08
2019-02-06T07:39:54.925Z,1018.03
2019-02-06T07:40:54.920Z,1018.06
2019-02-06T07:41:54.926Z,1018.07
2019-02-06T07:42:54.933Z,1018.10
2019-02-06T07:43:54.939Z,1018.04
2019-02-06T07:44:54.952Z,1018.08
2019-02-06T07:45:54.944Z,1018.07
2019-02-06T07:46:54.948Z,1018.09
2019-02-06T07:47:54.950Z,1018.08
2019-02-06T07:48:54.949Z,1018.06
2019-02-06T07:49:54.963Z,1018.10
2019-02-06T07:50:54.954Z,1018.07
2019-02-06T07:51:54.965Z,1018.07
2019-02-06T07:52:54.971Z,1018.07
2019-02-06T07:53:54.979Z,1018.07
2019-02-06T07:54:54.997Z,1018.07
2019-02-06T07:55:54.994Z,1018.07
2019-02-06T07:56:55.001Z,1018.09
2019-02-06T07:57:55.010Z,1018.04
2019-02-06T07:58:55.019Z,1018.06
2019-02-06T07:59:55.039Z,1018.09
2019-02-06T08:00:55.024Z,1018.04
2019-02-06T08:01:55.026Z,1018.03
2019-02-06T08:02:55.032Z,1018.02
2019-02-06T08:03:55.041Z,1018.07
2019-02-06T08:04:55.039Z,1018.08
2019-02-06T08:05:55.070Z,1018.11
2019-02-06T08:06:55.059Z,1018.09
2019-02-06T08:07:55.072Z,1018.09
2019-02-06T08:08:55.076Z,1018.16
2019-02-06T08:09:55.074Z,1018.16
2019-02-06T08:10:55.085Z,1018.23
2019-02-06T08:11:55.081Z,1018.25
2019-02-06T08:12:55.083Z,1018.25
2019-02-06T08:13:55.090Z,1018.28
2019-02-06T08:14:55.094Z,1018.28
2019-02-06T08:15:55.113Z,1018.30
2019-02-06T08:16:55.110Z,1018.27
2019-02-06T08:17:55.115Z,1018.27
2019-02-06T08:18:55.122Z,1018.22
2019-02-06T08:19:55.127Z,1018.25
2019-02-06T08:20:55.152Z,1018.25
2019-02-06T08:21:55.140Z,1018.22
2019-02-06T08:22:55.149Z,1018.22
2019-02-06T08:23:55.157Z,1018.24
2019-02-06T08:24:55.158Z,1018.25
2019-02-06T08:25:55.178Z,1018.32
2019-02-06T08:26:55.175Z,1018.32
2019-02-06T08:27:55.243Z,1018.35
2019-02-06T08:28:55.195Z,1018.34
2019-02-06T08:29:55.206Z,1018.34
2019-02-06T08:30:55.225Z,1018.33
2019-02-06T08:31:55.222Z,1018.36
2019-02-06T08:32:55.228Z,1018.38
2019-02-06T08:33:55.235Z,1018.30
2019-02-06T08:34:55.244Z,1018.31
2019-02-06T08:35:55.262Z,1018.35
2019-02-06T08:36:55.264Z,1018.36
2019-02-06T08:37:55.273Z,1018.31
2019-02-06T08:38:55.798Z,1018.29
2019-02-06T08:39:55.292Z,1018.33
2019-02-06T08:40:55.314Z,1018.29
2019-02-06T08:41:55.306Z,1018.29
2019-02-06T08:42:55.313Z,1018.31
2019-02-06T08:43:55.339Z,1018.32
2019-02-06T08:44:55.334Z,1018.33
2019-02-06T08:45:55.362Z,1018.31
2019-02-06T08:46:55.345Z,1018.28
2019-02-06T08:47:55.354Z,1018.25
2019-02-06T08:48:55.354Z,1018.28
2019-02-06T08:49:55.355Z,1018.27
2019-02-06T08:50:55.368Z,1018.29
2019-02-06T08:51:55.363Z,1018.30
2019-02-06T08:52:55.371Z,1018.31
2019-02-06T08:53:55.374Z,1018.29
2019-02-06T08:54:55.378Z,1018.34
2019-02-06T08:55:55.393Z,1018.31
2019-02-06T08:56:55.381Z,1018.30
2019-02-06T08:57:55.385Z,1018.31
2019-02-06T08:58:55.378Z,1018.27
2019-02-06T08:59:55.379Z,1018.32
2019-02-06T09:00:55.377Z,1018.29
2019-02-06T09:01:55.398Z,1018.29
2019-02-06T09:02:55.378Z,1018.30
2019-02-06T09:03:55.395Z,1018.30
2019-02-06T09:04:56.183Z,1018.27
2019-02-06T09:05:55.374Z,1018.26
2019-02-06T09:06:55.374Z,1018.24
2019-02-06T09:07:55.391Z,1018.28
2019-02-06T09:08:59.643Z,1018.29
2019-02-06T09:09:55.381Z,1018.27
2019-02-06T09:10:55.384Z,1018.29
2019-02-06T09:11:55.390Z,1018.29
2019-02-06T09:12:55.405Z,1018.24
2019-02-06T09:13:55.398Z,1018.25
2019-02-06T09:14:55.401Z,1018.25
2019-02-06T09:15:55.404Z,1018.30
2019-02-06T09:16:55.404Z,1018.27
2019-02-06T09:17:55.403Z,1018.32
2019-02-06T09:18:55.414Z,1018.30
2019-02-06T09:19:55.405Z,1018.31
2019-02-06T09:20:55.407Z,1018.30
2019-02-06T09:21:55.404Z,1018.30
2019-02-06T09:22:55.400Z,1018.33
2019-02-06T09:23:55.397Z,1018.28
2019-02-06T09:24:55.401Z,1018.27
2019-02-06T09:25:57.377Z,1018.29
2019-02-06T09:26:55.383Z,1018.31
2019-02-06T09:27:55.385Z,1018.27
2019-02-06T09:28:55.381Z,1018.30
2019-02-06T09:29:55.388Z,1018.29
2019-02-06T09:30:55.383Z,1018.28
2019-02-06T09:31:55.365Z,1018.23
2019-02-06T09:32:55.358Z,1018.22
2019-02-06T09:33:55.349Z,1018.22
2019-02-06T09:34:55.338Z,1018.16
2019-02-06T09:35:55.330Z,1018.20
2019-02-06T09:36:55.338Z,1018.16
2019-02-06T09:37:55.318Z,1018.12
2019-02-06T09:38:55.312Z,1018.08
2019-02-06T09:39:55.308Z,1018.10
2019-02-06T09:40:55.300Z,1018.13
2019-02-06T09:41:55.289Z,1018.14
2019-02-06T09:42:55.291Z,1018.13
2019-02-06T09:43:55.274Z,1018.17
2019-02-06T09:44:55.267Z,1018.12
2019-02-06T09:45:57.100Z,1018.14
2019-02-06T09:46:55.251Z,1018.11
2019-02-06T09:47:55.245Z,1018.13
2019-02-06T09:48:55.263Z,1018.10
2019-02-06T09:49:55.243Z,1018.12
2019-02-06T09:50:55.240Z,1018.09
2019-02-06T09:51:55.236Z,1018.08
2019-02-06T09:52:55.238Z,1018.11
2019-02-06T09:53:55.235Z,1018.07
2019-02-06T09:54:55.248Z,1018.08
2019-02-06T09:55:55.231Z,1018.03
2019-02-06T09:56:55.230Z,1018.02
2019-02-06T09:57:55.232Z,1017.99
2019-02-06T09:58:55.228Z,1018.03
2019-02-06T09:59:55.228Z,1018.01
2019-02-06T10:00:55.234Z,1018.00
2019-02-06T10:01:55.222Z,1018.00
2019-02-06T10:02:55.228Z,1017.95
2019-02-06T10:03:55.224Z,1018.00
2019-02-06T10:04:55.221Z,1018.02
2019-02-06T10:05:55.218Z,1017.97
2019-02-06T10:06:55.223Z,1018.02
2019-02-06T10:07:55.201Z,1018.00
2019-02-06T10:08:55.191Z,1017.98
2019-02-06T10:09:57.954Z,1018.00
2019-02-06T10:10:55.179Z,1017.97
2019-02-06T10:11:55.172Z,1017.97
2019-02-06T10:12:55.175Z,1017.94
2019-02-06T10:13:55.156Z,1017.95
2019-02-06T10:14:55.162Z,1017.95
2019-02-06T10:15:55.251Z,1017.96
2019-02-06T10:16:55.140Z,1017.94
2019-02-06T10:17:55.137Z,1017.96
2019-02-06T10:18:55.193Z,1017.98
2019-02-06T10:19:55.122Z,1017.98
2019-02-06T10:20:55.109Z,1018.00
2019-02-06T10:21:55.106Z,1018.00
2019-02-06T10:22:55.100Z,1018.01
2019-02-06T10:23:55.098Z,1017.99
2019-02-06T10:24:55.097Z,1018.01
2019-02-06T10:25:55.081Z,1018.00
2019-02-06T10:26:55.072Z,1017.98
2019-02-06T10:27:55.071Z,1018.04
2019-02-06T10:28:55.071Z,1018.04
2019-02-06T10:29:55.076Z,1018.03
2019-02-06T10:30:55.064Z,1018.04
2019-02-06T10:31:55.042Z,1017.98
2019-02-06T10:32:55.031Z,1018.00
2019-02-06T10:33:55.028Z,1018.05
2019-02-06T10:34:55.019Z,1018.01
2019-02-06T10:35:55.012Z,1018.04
2019-02-06T10:36:55.018Z,1018.05
2019-02-06T10:37:55.002Z,1018.04
2019-02-06T10:38:54.991Z,1018.05
2019-02-06T10:39:54.984Z,1018.03
2019-02-06T10:40:54.979Z,1018.09
2019-02-06T10:41:54.973Z,1018.13
2019-02-06T10:42:54.973Z,1018.11
2019-02-06T10:43:54.954Z,1018.12
2019-02-06T10:44:54.946Z,1018.07
2019-02-06T10:45:54.942Z,1018.10
2019-02-06T10:46:54.937Z,1018.10
2019-02-06T10:47:54.929Z,1018.08
2019-02-06T10:48:54.932Z,1018.13
2019-02-06T10:49:54.907Z,1018.10
2019-02-06T10:50:54.898Z,1018.12
2019-02-06T10:51:54.886Z,1018.06
2019-02-06T10:52:54.870Z,1018.09
2019-02-06T10:53:54.854Z,1018.09
2019-02-06T10:54:54.852Z,1018.07
2019-02-06T10:55:54.831Z,1018.01
2019-02-06T10:56:54.819Z,1017.98
2019-02-06T10:57:54.803Z,1017.98
2019-02-06T10:58:54.796Z,1018.03
2019-02-06T10:59:54.799Z,1017.94
2019-02-06T11:00:54.796Z,1017.96
2019-02-06T11:01:54.781Z,1017.99
2019-02-06T11:02:54.777Z,1017.97
2019-02-06T11:03:54.772Z,1017.95
2019-02-06T11:04:54.768Z,1018.03
2019-02-06T11:05:54.767Z,1017.99
2019-02-06T11:06:54.773Z,1018.02
2019-02-06T11:07:54.759Z,1018.01
2019-02-06T11:08:54.757Z,1018.06
2019-02-06T11:09:54.754Z,1018.03
2019-02-06T11:10:54.745Z,1018.02
2019-02-06T11:11:54.745Z,1017.96
2019-02-06T11:12:54.740Z,1017.96
2019-02-06T11:13:54.717Z,1017.92
2019-02-06T11:14:54.706Z,1017.92
2019-02-06T11:15:54.698Z,1017.96
2019-02-06T11:16:54.692Z,1017.85
2019-02-06T11:17:54.686Z,1017.88
2019-02-06T11:18:54.687Z,1017.84
2019-02-06T11:19:54.665Z,1017.86
2019-02-06T11:20:54.655Z,1017.85
2019-02-06T11:21:54.642Z,1017.85
2019-02-06T11:22:54.633Z,1017.87
2019-02-06T11:23:54.623Z,1017.84
2019-02-06T11:24:54.623Z,1017.83
2019-02-06T11:25:54.605Z,1017.77
2019-02-06T11:26:54.605Z,1017.76
2019-02-06T11:27:54.596Z,1017.71
2019-02-06T11:28:54.585Z,1017.68
2019-02-06T11:29:54.580Z,1017.72
2019-02-06T11:30:57.124Z,1017.71
2019-02-06T11:31:54.561Z,1017.72
2019-02-06T11:32:54.550Z,1017.67
2019-02-06T11:33:54.541Z,1017.68
2019-02-06T11:34:54.528Z,1017.67
2019-02-06T11:35:54.518Z,1017.64
2019-02-06T11:36:54.516Z,1017.60
2019-02-06T11:37:54.500Z,1017.60
2019-02-06T11:38:54.501Z,1017.62
2019-02-06T11:39:57.914Z,1017.65
2019-02-06T11:40:54.493Z,1017.60
2019-02-06T11:41:54.482Z,1017.60
2019-02-06T11:42:54.495Z,1017.55
2019-02-06T11:43:54.460Z,1017.56
2019-02-06T11:44:54.449Z,1017.51
2019-02-06T11:45:54.436Z,1017.50
2019-02-06T11:46:54.418Z,1017.54
2019-02-06T11:47:54.406Z,1017.55
2019-02-06T11:48:54.400Z,1017.55
2019-02-06T11:49:54.374Z,1017.53
2019-02-06T11:50:54.358Z,1017.55
2019-02-06T11:51:54.346Z,1017.52
2019-02-06T11:52:54.332Z,1017.49
2019-02-06T11:53:54.317Z,1017.44
2019-02-06T11:54:54.315Z,1017.45
2019-02-06T11:55:54.282Z,1017.44
2019-02-06T11:56:54.268Z,1017.40
2019-02-06T11:57:54.256Z,1017.43
2019-02-06T11:58:54.247Z,1017.41
2019-02-06T11:59:54.239Z,1017.36
2019-02-06T12:00:54.247Z,1017.38
2019-02-06T12:01:54.220Z,1017.39
2019-02-06T12:02:54.209Z,1017.41
2019-02-06T12:03:54.201Z,1017.35
2019-02-06T12:04:54.190Z,1017.35
2019-02-06T12:05:54.181Z,1017.36